createdAt,value
2022-11-16T00:00:16.345Z,7.90
2022-11-16T00:01:39.157Z,7.90
2022-11-16T00:03:05.466Z,7.90
2022-11-16T00:04:27.570Z,8.00
2022-11-16T00:05:54.727Z,8.00
2022-11-16T00:07:16.925Z,8.00
2022-11-16T00:09:10.159Z,7.90
2022-11-16T00:10:32.350Z,7.90
2022-11-16T00:11:57.239Z,7.90
2022-11-16T00:13:19.348Z,7.90
2022-11-16T00:14:41.445Z,7.90
2022-11-16T00:16:04.858Z,7.80
2022-11-16T00:17:26.943Z,7.80
2022-11-16T00:18:49.034Z,7.80
2022-11-16T00:20:11.408Z,7.70
2022-11-16T00:21:34.068Z,7.80
2022-11-16T00:22:56.119Z,7.80
2022-11-16T00:24:20.002Z,7.80
2022-11-16T00:25:42.254Z,7.70
2022-11-16T00:27:04.399Z,7.70
2022-11-16T00:28:26.446Z,7.80
2022-11-16T00:29:48.472Z,7.80
2022-11-16T00:31:11.370Z,7.70
2022-11-16T00:32:33.529Z,7.70
2022-11-16T00:33:55.648Z,7.70
2022-11-16T00:35:17.755Z,7.70
2022-11-16T00:36:39.954Z,7.70
2022-11-16T00:38:02.087Z,7.70
2022-11-16T00:39:24.310Z,7.70
2022-11-16T00:40:46.384Z,7.70
2022-11-16T00:42:08.473Z,7.70
2022-11-16T00:43:30.912Z,7.70
2022-11-16T00:44:52.936Z,7.70
2022-11-16T00:46:15.130Z,7.60
2022-11-16T00:47:37.425Z,7.60
2022-11-16T00:48:59.659Z,7.60
2022-11-16T00:50:21.714Z,7.60
2022-11-16T00:51:43.812Z,7.50
2022-11-16T00:53:06.862Z,7.50
2022-11-16T00:54:28.887Z,7.50
2022-11-16T00:55:50.980Z,7.50
2022-11-16T00:57:13.088Z,7.50
2022-11-16T00:58:35.430Z,7.50
2022-11-16T00:59:57.724Z,7.50
2022-11-16T01:01:19.959Z,7.50
2022-11-16T01:02:42.072Z,7.50
2022-11-16T01:04:04.299Z,7.50
2022-11-16T01:05:26.446Z,7.50
2022-11-16T01:06:48.525Z,7.50
2022-11-16T01:08:10.830Z,7.50
2022-11-16T01:09:32.994Z,7.50
2022-11-16T01:10:55.104Z,7.50
2022-11-16T01:12:17.281Z,7.50
2022-11-16T01:13:39.330Z,7.50
2022-11-16T01:15:01.545Z,7.50
2022-11-16T01:16:23.814Z,7.60
2022-11-16T01:17:45.977Z,7.50
2022-11-16T01:19:08.899Z,7.60
2022-11-16T01:20:31.064Z,7.60
2022-11-16T01:21:53.148Z,7.60
2022-11-16T01:23:15.295Z,7.60
2022-11-16T01:24:37.432Z,7.60
2022-11-16T01:26:01.793Z,7.60
2022-11-16T01:27:23.918Z,7.50
2022-11-16T01:28:46.185Z,7.50
2022-11-16T01:30:10.830Z,7.50
2022-11-16T01:31:33.023Z,7.50
2022-11-16T01:32:55.134Z,7.50
2022-11-16T01:34:17.397Z,7.50
2022-11-16T01:35:43.662Z,7.50
2022-11-16T01:37:05.713Z,7.50
2022-11-16T01:38:30.000Z,7.50
2022-11-16T01:39:52.560Z,7.50
2022-11-16T01:41:21.202Z,7.50
2022-11-16T01:42:43.301Z,7.50
2022-11-16T01:44:25.961Z,7.40
2022-11-16T01:45:48.083Z,7.40
2022-11-16T01:47:12.903Z,7.40
2022-11-16T01:48:35.188Z,7.40
2022-11-16T01:50:23.755Z,7.40
2022-11-16T01:51:51.712Z,7.40
2022-11-16T01:53:14.650Z,7.40
2022-11-16T01:54:42.765Z,7.40
2022-11-16T01:56:05.322Z,7.40
2022-11-16T01:57:40.197Z,7.40
2022-11-16T01:59:02.466Z,7.40
2022-11-16T02:00:24.547Z,7.40
2022-11-16T02:01:46.641Z,7.40
2022-11-16T02:03:08.761Z,7.40
2022-11-16T02:04:30.882Z,7.40
2022-11-16T02:06:04.788Z,7.40
2022-11-16T02:07:58.327Z,7.40
2022-11-16T02:09:54.073Z,7.40
2022-11-16T02:11:38.905Z,7.40
2022-11-16T02:13:27.423Z,7.40
2022-11-16T02:15:20.309Z,7.40
2022-11-16T02:16:57.558Z,7.40
2022-11-16T02:18:28.544Z,7.40
2022-11-16T02:19:59.377Z,7.40
2022-11-16T02:21:31.836Z,7.40
2022-11-16T02:23:18.328Z,7.40
2022-11-16T02:24:47.207Z,7.40
2022-11-16T02:26:46.160Z,7.40
2022-11-16T02:28:46.929Z,7.40
2022-11-16T02:30:09.522Z,7.40
2022-11-16T02:31:37.775Z,7.40
2022-11-16T02:33:11.998Z,7.40
2022-11-16T02:34:46.327Z,7.30
2022-11-16T02:36:12.283Z,7.30
2022-11-16T02:37:42.759Z,7.30
2022-11-16T02:39:08.689Z,7.30
2022-11-16T02:40:33.297Z,7.30
2022-11-16T02:41:57.076Z,7.30
2022-11-16T02:43:34.129Z,7.30
2022-11-16T02:44:59.216Z,7.40
2022-11-16T02:46:31.014Z,7.40
2022-11-16T02:47:58.273Z,7.40
2022-11-16T02:49:20.855Z,7.40
2022-11-16T02:50:43.937Z,7.40
2022-11-16T02:52:06.115Z,7.40
2022-11-16T02:53:28.309Z,7.40
2022-11-16T02:54:50.387Z,7.40
2022-11-16T02:56:13.846Z,7.40
2022-11-16T02:57:54.949Z,7.40
2022-11-16T02:59:17.832Z,7.40
2022-11-16T03:00:46.490Z,7.40
2022-11-16T03:02:45.560Z,7.40
2022-11-16T03:04:18.594Z,7.40
2022-11-16T03:05:48.611Z,7.40
2022-11-16T03:07:14.841Z,7.40
2022-11-16T03:08:41.971Z,7.40
2022-11-16T03:10:04.796Z,7.40
2022-11-16T03:11:46.939Z,7.40
2022-11-16T03:13:11.605Z,7.40
2022-11-16T03:14:43.097Z,7.40
2022-11-16T03:16:12.250Z,7.40
2022-11-16T03:17:49.885Z,7.40
2022-11-16T03:19:17.086Z,7.50
2022-11-16T03:20:39.514Z,7.50
2022-11-16T03:22:14.652Z,7.50
2022-11-16T03:23:37.165Z,7.50
2022-11-16T03:24:59.558Z,7.50
2022-11-16T03:26:26.743Z,7.50
2022-11-16T03:27:52.222Z,7.50
2022-11-16T03:29:29.403Z,7.50
2022-11-16T03:31:07.844Z,7.50
2022-11-16T03:32:39.702Z,7.50
2022-11-16T03:34:08.916Z,7.50
2022-11-16T03:35:52.953Z,7.50
2022-11-16T03:37:15.431Z,7.50
2022-11-16T03:38:40.146Z,7.50
2022-11-16T03:40:04.696Z,7.50
2022-11-16T03:41:28.416Z,7.50
2022-11-16T03:42:50.615Z,7.50
2022-11-16T03:44:16.013Z,7.50
2022-11-16T03:45:38.236Z,7.50
2022-11-16T03:47:01.925Z,7.50
2022-11-16T03:48:24.791Z,7.50
2022-11-16T03:49:47.657Z,7.50
2022-11-16T03:51:11.131Z,7.50
2022-11-16T03:52:33.768Z,7.60
2022-11-16T03:53:55.903Z,7.60
2022-11-16T03:55:18.025Z,7.60
2022-11-16T03:56:40.059Z,7.60
2022-11-16T03:58:02.144Z,7.60
2022-11-16T03:59:24.298Z,7.60
2022-11-16T04:00:46.446Z,7.60
2022-11-16T04:02:08.693Z,7.60
2022-11-16T04:03:30.758Z,7.70
2022-11-16T04:05:11.315Z,7.60
2022-11-16T04:06:51.884Z,7.70
2022-11-16T04:08:35.086Z,7.70
2022-11-16T04:10:15.882Z,7.70
2022-11-16T04:12:01.204Z,7.70
2022-11-16T04:13:49.594Z,7.70
2022-11-16T04:15:30.235Z,7.70
2022-11-16T04:17:11.100Z,7.70
2022-11-16T04:18:51.798Z,7.80
2022-11-16T04:20:33.523Z,7.70
2022-11-16T04:22:43.336Z,7.80
2022-11-16T04:24:14.994Z,7.80
2022-11-16T04:25:39.749Z,7.80
2022-11-16T04:27:23.791Z,7.80
2022-11-16T04:28:45.987Z,7.90
2022-11-16T04:30:08.687Z,7.80
2022-11-16T04:31:49.588Z,7.90
2022-11-16T04:33:30.086Z,7.90
2022-11-16T04:35:18.583Z,7.90
2022-11-16T04:36:59.320Z,7.90
2022-11-16T04:38:21.396Z,8.00
2022-11-16T04:39:43.448Z,8.00
2022-11-16T04:41:05.574Z,8.00
2022-11-16T04:42:27.608Z,8.10
2022-11-16T04:43:49.643Z,8.00
2022-11-16T04:45:30.413Z,8.00
2022-11-16T04:47:07.712Z,8.10
2022-11-16T04:48:29.788Z,8.10
2022-11-16T04:49:51.832Z,8.10
2022-11-16T04:51:13.915Z,8.10
2022-11-16T04:52:36.060Z,8.10
2022-11-16T04:53:58.069Z,8.10
2022-11-16T04:55:20.092Z,8.10
2022-11-16T04:56:42.185Z,8.10
2022-11-16T04:58:05.166Z,8.20
2022-11-16T04:59:27.282Z,8.10
2022-11-16T05:00:49.330Z,8.10
2022-11-16T05:02:11.441Z,8.10
2022-11-16T05:03:33.481Z,8.20
2022-11-16T05:04:55.629Z,8.20
2022-11-16T05:06:17.667Z,8.20
2022-11-16T05:07:40.421Z,8.20
2022-11-16T05:09:02.587Z,8.20
2022-11-16T05:10:24.717Z,8.20
2022-11-16T05:11:46.761Z,8.20
2022-11-16T05:13:08.885Z,8.20
2022-11-16T05:14:30.977Z,8.20
2022-11-16T05:15:52.999Z,8.20
2022-11-16T05:17:16.621Z,8.20
2022-11-16T05:18:38.653Z,8.20
2022-11-16T05:20:21.035Z,8.20
2022-11-16T05:21:43.128Z,8.20
2022-11-16T05:23:05.274Z,8.20
2022-11-16T05:24:36.233Z,8.20
2022-11-16T05:25:58.348Z,8.20
2022-11-16T05:27:22.896Z,8.20
2022-11-16T05:28:44.920Z,8.20
2022-11-16T05:30:07.737Z,8.20
2022-11-16T05:31:29.773Z,8.20
2022-11-16T05:32:51.802Z,8.20
2022-11-16T05:34:13.888Z,8.20
2022-11-16T05:35:35.974Z,8.20
2022-11-16T05:36:58.264Z,8.20
2022-11-16T05:38:20.486Z,8.20
2022-11-16T05:39:42.933Z,8.20
2022-11-16T05:41:05.145Z,8.20
2022-11-16T05:42:27.178Z,8.20
2022-11-16T05:43:49.241Z,8.20
2022-11-16T05:45:11.347Z,8.20
2022-11-16T05:46:33.734Z,8.10
2022-11-16T05:47:55.761Z,8.10
2022-11-16T05:49:18.184Z,8.10
2022-11-16T05:50:43.036Z,8.10
2022-11-16T05:52:05.492Z,8.20
2022-11-16T05:53:27.527Z,8.20
2022-11-16T05:54:49.551Z,8.20
2022-11-16T05:56:14.176Z,8.20
2022-11-16T05:57:37.026Z,8.20
2022-11-16T05:58:59.548Z,8.20
2022-11-16T06:00:21.773Z,8.20
2022-11-16T06:01:44.300Z,8.20
2022-11-16T06:03:06.404Z,8.20
2022-11-16T06:04:28.554Z,8.20
2022-11-16T06:05:53.199Z,8.20
2022-11-16T06:07:15.332Z,8.20
2022-11-16T06:08:37.777Z,8.20
2022-11-16T06:10:00.164Z,8.20
2022-11-16T06:11:22.707Z,8.20
2022-11-16T06:12:44.809Z,8.20
2022-11-16T06:14:07.490Z,8.20
2022-11-16T06:15:29.559Z,8.20
2022-11-16T06:16:51.651Z,8.20
2022-11-16T06:18:13.785Z,8.20
2022-11-16T06:19:35.875Z,8.20
2022-11-16T06:20:57.971Z,8.20
2022-11-16T06:22:20.020Z,8.20
2022-11-16T06:23:42.409Z,8.20
2022-11-16T06:25:06.721Z,8.20
2022-11-16T06:26:28.780Z,8.20
2022-11-16T06:27:50.835Z,8.20
2022-11-16T06:29:13.166Z,8.20
2022-11-16T06:30:35.541Z,8.30
2022-11-16T06:31:57.606Z,8.20
2022-11-16T06:33:20.146Z,8.30
2022-11-16T06:34:42.189Z,8.30
2022-11-16T06:36:04.498Z,8.30
2022-11-16T06:37:26.717Z,8.20
2022-11-16T06:38:48.779Z,8.20
2022-11-16T06:40:11.365Z,8.30
2022-11-16T06:41:37.599Z,8.20
2022-11-16T06:43:02.414Z,8.30
2022-11-16T06:44:24.445Z,8.30
2022-11-16T06:45:54.642Z,8.30
2022-11-16T06:47:16.775Z,8.30
2022-11-16T06:48:38.930Z,8.30
2022-11-16T06:50:01.034Z,8.30
2022-11-16T06:51:23.150Z,8.30
2022-11-16T06:52:49.539Z,8.30
2022-11-16T06:54:11.615Z,8.30
2022-11-16T06:55:33.833Z,8.30
2022-11-16T06:56:55.940Z,8.30
2022-11-16T06:58:18.019Z,8.30
2022-11-16T06:59:40.064Z,8.40
2022-11-16T07:01:09.579Z,8.40
2022-11-16T07:02:31.684Z,8.40
2022-11-16T07:03:53.750Z,8.40
2022-11-16T07:05:16.051Z,8.40
2022-11-16T07:06:38.979Z,8.40
2022-11-16T07:08:01.090Z,8.40
2022-11-16T07:09:23.185Z,8.40
2022-11-16T07:10:45.294Z,8.40
2022-11-16T07:12:07.480Z,8.40
2022-11-16T07:13:32.103Z,8.40
2022-11-16T07:14:54.223Z,8.40
2022-11-16T07:16:16.260Z,8.40
2022-11-16T07:17:38.529Z,8.40
2022-11-16T07:19:00.778Z,8.50
2022-11-16T07:20:23.113Z,8.50
2022-11-16T07:21:45.155Z,8.50
2022-11-16T07:23:12.884Z,8.50
2022-11-16T07:24:36.214Z,8.50
2022-11-16T07:26:05.903Z,8.50
2022-11-16T07:27:28.004Z,8.50
2022-11-16T07:28:50.144Z,8.50
2022-11-16T07:30:12.865Z,8.50
2022-11-16T07:31:34.931Z,8.60
2022-11-16T07:32:58.854Z,8.60
2022-11-16T07:34:20.957Z,8.60
2022-11-16T07:35:43.057Z,8.50
2022-11-16T07:37:05.108Z,8.50
2022-11-16T07:38:27.167Z,8.50
2022-11-16T07:39:49.324Z,8.60
2022-11-16T07:41:14.852Z,8.60
2022-11-16T07:42:36.922Z,8.60
2022-11-16T07:44:01.083Z,8.60
2022-11-16T07:45:23.157Z,8.60
2022-11-16T07:46:47.431Z,8.70
2022-11-16T07:48:09.834Z,8.70
2022-11-16T07:49:31.940Z,8.70
2022-11-16T07:50:54.124Z,8.70
2022-11-16T07:52:16.209Z,8.70
2022-11-16T07:53:38.521Z,8.70
2022-11-16T07:55:01.735Z,8.80
2022-11-16T07:56:24.747Z,8.80
2022-11-16T07:57:51.916Z,8.80
2022-11-16T07:59:15.293Z,8.70
2022-11-16T08:00:37.395Z,8.80
2022-11-16T08:01:59.564Z,8.80
2022-11-16T08:03:24.650Z,8.80
2022-11-16T08:04:47.221Z,8.80
2022-11-16T08:06:27.207Z,8.90
2022-11-16T08:07:49.308Z,8.90
2022-11-16T08:09:11.476Z,9.00
2022-11-16T08:10:33.803Z,9.00
2022-11-16T08:11:56.019Z,9.10
2022-11-16T08:13:18.144Z,9.00
2022-11-16T08:14:40.209Z,9.00
2022-11-16T08:16:04.046Z,9.10
2022-11-16T08:17:26.171Z,9.10
2022-11-16T08:18:48.575Z,9.10
2022-11-16T08:20:10.991Z,9.10
2022-11-16T08:21:33.066Z,9.00
2022-11-16T08:22:59.819Z,9.00
2022-11-16T08:24:22.334Z,9.00
2022-11-16T08:25:44.382Z,9.10
2022-11-16T08:27:06.513Z,9.10
2022-11-16T08:28:29.526Z,9.10
2022-11-16T08:29:51.613Z,9.00
2022-11-16T08:31:16.147Z,9.00
2022-11-16T08:32:38.653Z,9.10
2022-11-16T08:34:00.980Z,9.10
2022-11-16T08:35:23.365Z,9.10
2022-11-16T08:36:45.499Z,9.10
2022-11-16T08:38:07.592Z,9.10
2022-11-16T08:39:29.696Z,9.10
2022-11-16T08:40:51.794Z,9.10
2022-11-16T08:42:13.847Z,9.20
2022-11-16T08:43:36.016Z,9.20
2022-11-16T08:44:58.364Z,9.20
2022-11-16T08:46:21.480Z,9.20
2022-11-16T08:47:43.641Z,9.20
2022-11-16T08:49:05.755Z,9.20
2022-11-16T08:50:27.898Z,9.20
2022-11-16T08:51:49.990Z,9.20
2022-11-16T08:53:13.128Z,9.20
2022-11-16T08:54:35.206Z,9.20
2022-11-16T08:56:06.143Z,9.20
2022-11-16T08:57:28.200Z,9.20
2022-11-16T08:58:58.185Z,9.20
2022-11-16T09:00:21.228Z,9.20
2022-11-16T09:01:43.398Z,9.20
2022-11-16T09:03:05.494Z,9.10
2022-11-16T09:04:29.589Z,9.10
2022-11-16T09:05:53.634Z,9.00
2022-11-16T09:07:16.057Z,9.10
2022-11-16T09:08:40.446Z,9.10
2022-11-16T09:10:02.600Z,9.10
2022-11-16T09:11:25.689Z,9.10
2022-11-16T09:12:47.748Z,9.10
2022-11-16T09:14:10.195Z,9.10
2022-11-16T09:15:32.786Z,9.20
2022-11-16T09:16:54.916Z,9.20
2022-11-16T09:18:16.990Z,9.30
2022-11-16T09:19:39.118Z,9.30
2022-11-16T09:21:01.214Z,9.30
2022-11-16T09:22:23.556Z,9.30
2022-11-16T09:23:46.515Z,9.30
2022-11-16T09:25:09.961Z,9.40
2022-11-16T09:26:32.310Z,9.40
2022-11-16T09:27:57.328Z,9.40
2022-11-16T09:29:19.431Z,9.40
2022-11-16T09:30:42.863Z,9.40
2022-11-16T09:32:05.209Z,9.40
2022-11-16T09:33:32.605Z,9.40
2022-11-16T09:34:54.926Z,9.40
2022-11-16T09:36:17.017Z,9.40
2022-11-16T09:37:39.167Z,9.40
2022-11-16T09:40:46.865Z,9.40
2022-11-16T09:42:43.147Z,9.40
2022-11-16T09:44:11.032Z,9.40
2022-11-16T09:45:45.169Z,9.30
2022-11-16T09:47:31.751Z,9.30
2022-11-16T09:48:58.045Z,9.20
2022-11-16T09:50:41.414Z,9.20
2022-11-16T09:52:09.818Z,9.20
2022-11-16T09:53:40.547Z,9.20
2022-11-16T09:55:16.340Z,9.20
2022-11-16T09:56:41.677Z,9.20
2022-11-16T09:58:15.291Z,9.20
2022-11-16T09:59:46.684Z,9.20
2022-11-16T10:01:23.919Z,9.20
2022-11-16T10:03:11.342Z,9.20
2022-11-16T10:04:43.835Z,9.20
2022-11-16T10:06:09.348Z,9.10
2022-11-16T10:07:38.711Z,9.10
2022-11-16T10:09:00.864Z,9.00
2022-11-16T10:10:39.905Z,9.00
2022-11-16T10:12:08.151Z,9.00
2022-11-16T10:13:42.525Z,9.00
2022-11-16T10:15:16.791Z,9.00
2022-11-16T10:17:06.727Z,9.00
2022-11-16T10:18:37.565Z,9.00
2022-11-16T10:20:14.506Z,9.00
2022-11-16T10:22:05.655Z,9.00
2022-11-16T10:23:30.340Z,9.00
2022-11-16T10:25:15.025Z,9.00
2022-11-16T10:26:56.053Z,8.90
2022-11-16T10:28:40.079Z,8.90
2022-11-16T10:30:02.079Z,8.90
2022-11-16T10:32:06.999Z,8.90
2022-11-16T10:33:36.786Z,8.90
2022-11-16T10:35:05.432Z,8.90
2022-11-16T10:36:31.041Z,8.80
2022-11-16T10:37:53.214Z,8.80
2022-11-16T10:39:18.475Z,8.80
2022-11-16T10:40:41.565Z,8.80
2022-11-16T10:42:10.619Z,8.80
2022-11-16T10:43:33.866Z,8.80
2022-11-16T10:45:10.599Z,8.80
2022-11-16T10:46:45.881Z,8.80
2022-11-16T10:48:17.917Z,8.80
2022-11-16T10:49:57.255Z,8.80
2022-11-16T10:51:19.686Z,8.80
2022-11-16T10:52:41.959Z,8.80
2022-11-16T10:54:16.507Z,8.80
2022-11-16T10:55:38.681Z,8.80
2022-11-16T10:57:13.948Z,8.80
2022-11-16T10:59:01.972Z,8.80
2022-11-16T11:00:42.564Z,8.80
2022-11-16T11:02:24.644Z,8.80
2022-11-16T11:03:46.890Z,8.80
2022-11-16T11:05:21.721Z,8.90
2022-11-16T11:06:45.503Z,8.90
2022-11-16T11:08:11.384Z,8.90
2022-11-16T11:09:37.977Z,9.00
2022-11-16T11:11:23.690Z,9.00
2022-11-16T11:13:02.628Z,9.00
2022-11-16T11:14:24.813Z,9.00
2022-11-16T11:15:48.109Z,9.00
2022-11-16T11:17:17.511Z,9.00
2022-11-16T11:18:39.627Z,9.00
2022-11-16T11:20:06.694Z,9.00
2022-11-16T11:21:28.923Z,9.00
2022-11-16T11:22:59.043Z,9.00
2022-11-16T11:26:03.416Z,9.00
2022-11-16T11:27:30.964Z,9.10
2022-11-16T11:28:53.651Z,9.10
2022-11-16T11:30:22.409Z,9.10
2022-11-16T11:31:48.857Z,9.10
2022-11-16T11:33:12.725Z,9.00
2022-11-16T11:34:45.308Z,9.00
2022-11-16T11:36:21.246Z,9.00
2022-11-16T11:37:43.486Z,9.00
2022-11-16T11:39:26.326Z,8.90
2022-11-16T11:40:58.567Z,8.90
2022-11-16T11:42:23.216Z,8.80
2022-11-16T11:44:04.643Z,8.80
2022-11-16T11:45:46.267Z,8.70
2022-11-16T11:49:33.202Z,8.60
2022-11-16T11:51:04.897Z,8.60
2022-11-16T11:52:35.543Z,8.60
2022-11-16T11:53:58.839Z,8.60
2022-11-16T11:55:20.956Z,8.60
2022-11-16T11:56:43.125Z,8.60
2022-11-16T11:58:11.564Z,8.60
2022-11-16T11:59:33.719Z,8.60
2022-11-16T12:01:23.766Z,8.60
2022-11-16T12:03:33.342Z,8.60
2022-11-16T12:05:03.221Z,8.60
2022-11-16T12:06:51.968Z,8.60
2022-11-16T12:08:49.988Z,8.60
2022-11-16T12:10:30.708Z,8.60
2022-11-16T12:12:01.898Z,8.60
2022-11-16T12:13:36.141Z,8.60
2022-11-16T12:15:06.875Z,8.60
2022-11-16T12:16:51.411Z,8.60
2022-11-16T12:18:25.294Z,8.60
2022-11-16T12:20:21.306Z,8.60
2022-11-16T12:22:00.896Z,8.60
2022-11-16T12:23:38.642Z,8.60
2022-11-16T12:25:09.810Z,8.60
2022-11-16T12:26:47.176Z,8.60
2022-11-16T12:28:27.751Z,8.60
2022-11-16T12:30:07.620Z,8.70
2022-11-16T12:31:54.226Z,8.60
2022-11-16T12:33:31.644Z,8.60
2022-11-16T12:35:19.263Z,8.60
2022-11-16T12:37:05.134Z,8.70
2022-11-16T12:38:30.348Z,8.70
2022-11-16T12:40:26.341Z,8.70
2022-11-16T12:42:12.376Z,8.70
2022-11-16T12:44:02.805Z,8.70
2022-11-16T12:45:36.692Z,8.70
2022-11-16T12:46:58.830Z,8.70
2022-11-16T12:48:32.721Z,8.70
2022-11-16T12:50:05.865Z,8.70
2022-11-16T12:51:49.095Z,8.70
2022-11-16T12:53:41.131Z,8.70
2022-11-16T12:55:28.922Z,8.70
2022-11-16T12:57:06.171Z,8.70
2022-11-16T12:58:55.627Z,8.70
2022-11-16T13:00:19.550Z,8.80
2022-11-16T13:02:02.812Z,8.80
2022-11-16T13:03:42.850Z,8.80
2022-11-16T13:05:44.687Z,8.80
2022-11-16T13:07:21.675Z,8.70
2022-11-16T13:09:03.696Z,8.80
2022-11-16T13:10:42.905Z,8.70
2022-11-16T13:12:14.089Z,8.70
2022-11-16T13:13:37.486Z,8.70
2022-11-16T13:15:02.230Z,8.70
2022-11-16T13:16:25.285Z,8.70
2022-11-16T13:17:57.805Z,8.70
2022-11-16T13:19:20.722Z,8.80
2022-11-16T13:21:05.724Z,8.80
2022-11-16T13:22:28.895Z,8.80
2022-11-16T13:24:12.214Z,8.80
2022-11-16T13:25:39.202Z,8.80
2022-11-16T13:27:16.886Z,8.80
2022-11-16T13:29:09.321Z,8.80
2022-11-16T13:30:48.899Z,8.70
2022-11-16T13:32:27.077Z,8.70
2022-11-16T13:33:59.835Z,8.60
2022-11-16T13:35:23.033Z,8.60
2022-11-16T13:36:46.506Z,8.60
2022-11-16T13:38:15.537Z,8.50
2022-11-16T13:39:59.150Z,8.50
2022-11-16T13:41:39.313Z,8.40
2022-11-16T13:43:11.074Z,8.40
2022-11-16T13:44:33.663Z,8.30
2022-11-16T13:46:00.837Z,8.20
2022-11-16T13:47:27.733Z,8.10
2022-11-16T13:48:50.750Z,8.00
2022-11-16T13:50:19.536Z,7.90
2022-11-16T13:51:51.944Z,7.80
2022-11-16T13:55:15.809Z,7.70
2022-11-16T13:56:51.549Z,7.60
2022-11-16T13:58:21.864Z,7.60
2022-11-16T13:59:43.992Z,7.50
2022-11-16T14:01:14.285Z,7.50
2022-11-16T14:02:39.584Z,7.50
2022-11-16T14:04:40.741Z,7.50
2022-11-16T14:06:02.887Z,7.50
2022-11-16T14:07:36.989Z,7.50
2022-11-16T14:09:00.243Z,7.40
2022-11-16T14:10:51.503Z,7.40
2022-11-16T14:12:38.465Z,7.40
2022-11-16T14:14:06.027Z,7.40
2022-11-16T14:15:39.733Z,7.40
2022-11-16T14:17:03.431Z,7.40
2022-11-16T14:18:35.153Z,7.40
2022-11-16T14:19:57.390Z,7.30
2022-11-16T14:21:19.482Z,7.30
2022-11-16T14:22:59.110Z,7.30
2022-11-16T14:24:39.625Z,7.40
2022-11-16T14:26:10.341Z,7.40
2022-11-16T14:27:39.659Z,7.40
2022-11-16T14:29:10.946Z,7.40
2022-11-16T14:30:47.927Z,7.30
2022-11-16T14:32:26.019Z,7.40
2022-11-16T14:33:57.231Z,7.40
2022-11-16T14:35:38.959Z,7.40
2022-11-16T14:37:01.325Z,7.40
2022-11-16T14:38:33.941Z,7.40
2022-11-16T14:40:07.810Z,7.40
2022-11-16T14:41:30.064Z,7.40
2022-11-16T14:44:39.459Z,7.40
2022-11-16T14:46:08.719Z,7.40
2022-11-16T14:47:35.073Z,7.30
2022-11-16T14:49:01.122Z,7.30
2022-11-16T14:50:27.022Z,7.20
2022-11-16T14:51:55.912Z,7.20
2022-11-16T14:53:19.499Z,7.20
2022-11-16T14:54:46.075Z,7.10
2022-11-16T14:56:11.799Z,7.10
2022-11-16T14:57:34.360Z,7.10
2022-11-16T14:59:00.681Z,7.10
2022-11-16T15:00:29.910Z,7.10
2022-11-16T15:01:53.062Z,7.10
2022-11-16T15:03:15.338Z,7.10
2022-11-16T15:04:39.199Z,7.10
2022-11-16T15:06:03.273Z,7.20
2022-11-16T15:07:28.640Z,7.20
2022-11-16T15:09:02.190Z,7.20
2022-11-16T15:10:26.846Z,7.20
2022-11-16T15:12:08.381Z,7.20
2022-11-16T15:13:30.507Z,7.20
2022-11-16T15:14:54.777Z,7.20
2022-11-16T15:16:20.001Z,7.20
2022-11-16T15:17:59.371Z,7.10
2022-11-16T15:19:22.327Z,7.10
2022-11-16T15:20:51.177Z,7.20
2022-11-16T15:22:18.393Z,7.10
2022-11-16T15:23:56.903Z,7.10
2022-11-16T15:25:45.087Z,7.10
2022-11-16T15:27:30.167Z,7.10
2022-11-16T15:28:52.512Z,7.10
2022-11-16T15:30:19.930Z,7.10
2022-11-16T15:31:42.619Z,7.10
2022-11-16T15:33:16.821Z,7.10
2022-11-16T15:34:39.472Z,7.10
2022-11-16T15:36:01.686Z,7.00
2022-11-16T15:37:28.517Z,7.00
2022-11-16T15:38:55.649Z,6.90
2022-11-16T15:40:17.877Z,6.90
2022-11-16T15:41:40.409Z,6.90
2022-11-16T15:43:05.523Z,6.80
2022-11-16T15:44:28.678Z,6.80
2022-11-16T15:45:51.421Z,6.80
2022-11-16T15:47:14.498Z,6.70
2022-11-16T15:48:38.761Z,6.70
2022-11-16T15:50:00.888Z,6.70
2022-11-16T15:51:23.486Z,6.70
2022-11-16T15:52:50.040Z,6.60
2022-11-16T15:54:14.000Z,6.60
2022-11-16T15:55:39.174Z,6.50
2022-11-16T15:57:11.984Z,6.50
2022-11-16T15:58:39.051Z,6.40
2022-11-16T16:00:01.216Z,6.40
2022-11-16T16:01:24.610Z,6.40
2022-11-16T16:02:46.789Z,6.30
2022-11-16T16:04:14.135Z,6.30
2022-11-16T16:05:39.438Z,6.20
2022-11-16T16:07:01.604Z,6.20
2022-11-16T16:08:32.638Z,6.10
2022-11-16T16:10:20.667Z,6.10
2022-11-16T16:11:42.817Z,6.10
2022-11-16T16:13:25.967Z,6.00
2022-11-16T16:14:49.687Z,6.00
2022-11-16T16:16:12.075Z,6.00
2022-11-16T16:17:34.512Z,5.90
2022-11-16T16:19:08.177Z,5.90
2022-11-16T16:20:32.721Z,5.90
2022-11-16T16:21:54.904Z,5.80
2022-11-16T16:23:25.543Z,5.80
2022-11-16T16:24:47.677Z,5.80
2022-11-16T16:26:09.994Z,5.90
2022-11-16T16:27:38.088Z,5.90
2022-11-16T16:29:00.147Z,5.90
2022-11-16T16:30:22.323Z,5.90
2022-11-16T16:31:44.430Z,5.90
2022-11-16T16:33:06.543Z,5.90
2022-11-16T16:34:28.619Z,6.00
2022-11-16T16:35:51.001Z,6.00
2022-11-16T16:37:15.228Z,6.00
2022-11-16T16:38:38.830Z,6.10
2022-11-16T16:40:01.216Z,6.10
2022-11-16T16:41:24.694Z,6.10
2022-11-16T16:42:50.895Z,6.10
2022-11-16T16:44:16.148Z,6.00
2022-11-16T16:45:43.740Z,6.00
2022-11-16T16:47:06.079Z,6.00
2022-11-16T16:48:28.221Z,5.90
2022-11-16T16:49:50.287Z,5.90
2022-11-16T16:51:13.198Z,5.80
2022-11-16T16:52:35.299Z,5.80
2022-11-16T16:53:57.371Z,5.80
2022-11-16T16:55:19.462Z,5.80
2022-11-16T16:56:41.556Z,5.80
2022-11-16T16:58:03.899Z,5.80
2022-11-16T16:59:25.985Z,5.80
2022-11-16T17:00:48.120Z,5.80
2022-11-16T17:02:11.692Z,5.80
2022-11-16T17:03:34.063Z,5.80
2022-11-16T17:04:56.312Z,5.80
2022-11-16T17:06:18.965Z,5.80
2022-11-16T17:07:41.250Z,5.80
2022-11-16T17:09:03.824Z,5.80
2022-11-16T17:10:26.190Z,5.80
2022-11-16T17:11:48.360Z,5.80
2022-11-16T17:13:10.719Z,5.80
2022-11-16T17:14:32.823Z,5.80
2022-11-16T17:15:54.884Z,5.80
2022-11-16T17:17:20.943Z,5.70
2022-11-16T17:18:44.457Z,5.80
2022-11-16T17:20:07.922Z,5.80
2022-11-16T17:21:30.136Z,5.80
2022-11-16T17:22:52.550Z,5.80
2022-11-16T17:24:14.600Z,5.80
2022-11-16T17:25:39.549Z,5.80
2022-11-16T17:27:01.671Z,5.80
2022-11-16T17:28:23.747Z,5.80
2022-11-16T17:29:45.791Z,5.80
2022-11-16T17:31:10.489Z,5.80
2022-11-16T17:32:32.619Z,5.80
2022-11-16T17:33:57.601Z,5.80
2022-11-16T17:35:19.695Z,5.80
2022-11-16T17:36:42.828Z,5.80
2022-11-16T17:38:04.922Z,5.80
2022-11-16T17:39:26.940Z,5.80
2022-11-16T17:40:49.016Z,5.80
2022-11-16T17:42:11.117Z,5.80
2022-11-16T17:43:33.668Z,5.80
2022-11-16T17:44:55.850Z,5.80
2022-11-16T17:46:19.573Z,5.80
2022-11-16T17:47:41.724Z,5.70
2022-11-16T17:49:03.820Z,5.70
2022-11-16T17:50:25.918Z,5.70
2022-11-16T17:51:48.141Z,5.70
2022-11-16T17:53:10.238Z,5.70
2022-11-16T17:54:32.391Z,5.70
2022-11-16T17:55:55.065Z,5.70
2022-11-16T17:57:17.124Z,5.80
2022-11-16T17:58:39.516Z,5.80
2022-11-16T18:00:01.639Z,5.80
2022-11-16T18:01:24.553Z,5.90
2022-11-16T18:02:46.679Z,5.90
2022-11-16T18:04:08.791Z,6.00
2022-11-16T18:05:30.900Z,6.00
2022-11-16T18:06:52.994Z,6.00
2022-11-16T18:08:15.094Z,6.00
2022-11-16T18:09:37.202Z,6.10
2022-11-16T18:11:19.826Z,6.10
2022-11-16T18:12:41.952Z,6.10
2022-11-16T18:14:05.659Z,6.10
2022-11-16T18:15:28.994Z,6.10
2022-11-16T18:16:51.378Z,6.10
2022-11-16T18:18:13.430Z,6.10
2022-11-16T18:19:35.508Z,6.10
2022-11-16T18:20:58.937Z,6.10
2022-11-16T18:22:21.023Z,6.10
2022-11-16T18:23:43.476Z,6.10
2022-11-16T18:25:05.961Z,6.00
2022-11-16T18:26:28.083Z,6.00
2022-11-16T18:27:54.692Z,6.00
2022-11-16T18:29:19.162Z,6.00
2022-11-16T18:30:41.300Z,6.00
2022-11-16T18:32:03.443Z,6.00
2022-11-16T18:33:30.464Z,6.10
2022-11-16T18:34:53.086Z,6.10
2022-11-16T18:36:16.265Z,6.00
2022-11-16T18:37:38.325Z,6.00
2022-11-16T18:39:00.361Z,6.00
2022-11-16T18:40:22.490Z,6.00
2022-11-16T18:41:50.084Z,6.00
2022-11-16T18:43:15.427Z,6.00
2022-11-16T18:44:37.537Z,6.00
2022-11-16T18:46:00.378Z,6.00
2022-11-16T18:47:22.636Z,6.00
2022-11-16T18:48:46.667Z,6.00
2022-11-16T18:50:18.057Z,6.00
2022-11-16T18:51:41.313Z,6.10
2022-11-16T18:53:03.552Z,6.10
2022-11-16T18:54:25.600Z,6.10
2022-11-16T18:55:57.442Z,6.10
2022-11-16T18:57:20.042Z,6.10
2022-11-16T18:58:51.866Z,6.10
2022-11-16T19:00:15.463Z,6.10
2022-11-16T19:01:37.759Z,6.10
2022-11-16T19:02:59.842Z,6.10
2022-11-16T19:04:21.974Z,6.10
2022-11-16T19:05:44.294Z,6.10
2022-11-16T19:07:07.645Z,6.20
2022-11-16T19:08:30.452Z,6.10
2022-11-16T19:09:52.524Z,6.10
2022-11-16T19:11:16.779Z,6.20
2022-11-16T19:12:38.897Z,6.20
2022-11-16T19:14:03.652Z,6.20
2022-11-16T19:15:26.334Z,6.20
2022-11-16T19:16:53.991Z,6.20
2022-11-16T19:18:22.026Z,6.20
2022-11-16T19:19:44.387Z,6.20
2022-11-16T19:21:11.325Z,6.20
2022-11-16T19:22:33.989Z,6.10
2022-11-16T19:23:56.960Z,6.10
2022-11-16T19:25:19.097Z,6.10
2022-11-16T19:26:41.155Z,6.10
2022-11-16T19:28:04.805Z,6.10
2022-11-16T19:29:26.868Z,6.10
2022-11-16T19:30:48.943Z,6.10